createdAt,value
2022-12-19T00:12:02.259Z,97
2022-12-19T00:27:23.815Z,96.5
2022-12-19T00:37:37.956Z,96.5
2022-12-19T01:03:13.908Z,96
2022-12-19T02:20:01.517Z,95
2022-12-19T02:45:37.212Z,94
2022-12-19T03:11:12.917Z,90.5
2022-12-19T04:28:00.813Z,82.5
2022-12-19T04:53:36.516Z,83
2022-12-19T05:14:05.068Z,82.5
2022-12-19T05:19:11.969Z,82.5
2022-12-19T05:44:47.925Z,82.5
2022-12-19T06:30:52.638Z,81.5
2022-12-19T06:35:59.388Z,80.5
2022-12-19T07:01:35.345Z,80
2022-12-19T07:27:11.294Z,81
2022-12-19T07:47:40.068Z,81.5
2022-12-19T08:08:08.394Z,79.5
2022-12-19T08:43:58.717Z,79.5
2022-12-19T08:49:05.921Z,79
2022-12-19T09:09:34.708Z,79.5
2022-12-19T09:24:56.283Z,79
2022-12-19T10:51:58.154Z,95
2022-12-19T11:17:34.100Z,99
2022-12-19T11:43:10.146Z,99.5
2022-12-19T12:44:38.466Z,99.5
2022-12-19T12:49:46.597Z,99.5
2022-12-19T12:54:54.774Z,99.5
2022-12-19T13:05:11.137Z,99.5
2022-12-19T13:10:19.309Z,99.5
2022-12-19T13:15:27.494Z,99.5
2022-12-19T13:20:35.727Z,99.5
2022-12-19T13:25:43.861Z,99.5
2022-12-19T13:30:52.027Z,99.5
2022-12-19T13:36:00.203Z,99.5
2022-12-19T13:41:08.404Z,99.5
2022-12-19T13:46:16.565Z,99.5
2022-12-19T13:51:24.752Z,99.5
2022-12-19T13:56:32.903Z,99.5
2022-12-19T14:01:41.084Z,99.5
2022-12-19T14:06:49.250Z,99.5
2022-12-19T14:11:57.468Z,99.5
2022-12-19T14:17:05.622Z,99.5
2022-12-19T14:22:13.878Z,99.5
2022-12-19T14:27:21.986Z,99.5
2022-12-19T14:32:30.314Z,99.5
2022-12-19T14:37:38.474Z,99.5
2022-12-19T14:42:46.649Z,99.5
2022-12-19T14:47:54.835Z,99.5
2022-12-19T14:53:03.012Z,99.5
2022-12-19T14:58:11.191Z,99.5
2022-12-19T15:03:19.362Z,99.5
2022-12-19T15:08:27.528Z,99.5
2022-12-19T15:13:35.729Z,99.5
2022-12-19T15:18:43.897Z,99.5
2022-12-19T15:23:52.056Z,99.5
2022-12-19T15:29:00.519Z,99.5
2022-12-19T15:34:08.569Z,99.5
2022-12-19T15:39:16.741Z,99.5
2022-12-19T15:44:24.923Z,99.5
2022-12-19T15:49:33.100Z,99.5
2022-12-19T15:54:41.271Z,99.5
2022-12-19T15:59:49.449Z,99.5
2022-12-19T16:04:57.646Z,99.5
2022-12-19T16:10:05.853Z,99.5
2022-12-19T16:15:14.039Z,99.5
2022-12-19T16:20:22.235Z,99.5
2022-12-19T16:25:30.394Z,99.5
2022-12-19T16:30:38.509Z,99.5
2022-12-19T16:35:46.677Z,99.5
2022-12-19T16:40:54.867Z,99.5
2022-12-19T16:51:11.207Z,99.5
2022-12-19T16:56:19.405Z,99.5
2022-12-19T17:01:27.563Z,99.5
2022-12-19T17:06:35.787Z,99.5
2022-12-19T17:11:43.975Z,99.5
2022-12-19T17:16:52.074Z,99.5
2022-12-19T17:22:00.274Z,99.5
2022-12-19T17:27:08.428Z,99.5
2022-12-19T17:32:16.591Z,99.5
2022-12-19T17:37:24.808Z,99.5
2022-12-19T17:42:32.955Z,99.5
2022-12-19T17:47:41.123Z,99.5
2022-12-19T17:52:49.298Z,99.5
2022-12-19T17:57:57.467Z,99.5
2022-12-19T18:03:05.638Z,99.5
2022-12-19T18:08:13.822Z,99.5
2022-12-19T18:13:22.081Z,99.5
2022-12-19T18:18:30.181Z,99.5
2022-12-19T18:23:38.474Z,99.5
2022-12-19T18:33:54.693Z,99.5
2022-12-19T18:39:02.892Z,99.5
2022-12-19T18:44:11.106Z,99.5
2022-12-19T18:49:19.206Z,99.5
2022-12-19T18:54:27.365Z,99.5
2022-12-19T18:59:35.536Z,99.5
2022-12-19T19:04:43.716Z,99.5
2022-12-19T19:15:00.123Z,99.5
2022-12-19T19:20:08.250Z,99.5
2022-12-19T19:25:16.434Z,99.5
2022-12-19T19:30:24.589Z,99.5
2022-12-19T19:35:32.754Z,99.5
2022-12-19T19:40:40.939Z,99.5
2022-12-19T19:45:49.114Z,99.5
2022-12-19T19:50:57.289Z,99.5
2022-12-19T19:56:05.460Z,99.5
2022-12-19T20:01:13.646Z,99.5
2022-12-19T20:06:21.819Z,99.5
2022-12-19T20:11:29.990Z,99.5
2022-12-19T20:16:38.176Z,99.5
2022-12-19T20:21:46.356Z,99.5
2022-12-19T20:26:54.503Z,99.5
2022-12-19T20:32:02.682Z,99.5
2022-12-19T20:37:10.863Z,99.5
2022-12-19T20:42:19.023Z,99.5
2022-12-19T20:47:27.217Z,99.5
2022-12-19T20:52:35.395Z,99.5
2022-12-19T20:57:43.553Z,99.5
2022-12-19T21:02:51.743Z,99.5
2022-12-19T21:07:59.908Z,99.5
2022-12-19T21:13:08.070Z,99.5
2022-12-19T21:18:16.278Z,99.5
2022-12-19T21:23:24.448Z,99.5
2022-12-19T21:28:32.624Z,98.5
2022-12-19T21:33:40.861Z,99
2022-12-19T21:38:48.988Z,98.5
2022-12-19T21:43:57.151Z,99
2022-12-19T21:49:05.303Z,98
2022-12-19T21:54:13.491Z,98
2022-12-19T21:59:21.708Z,98
2022-12-19T22:04:29.845Z,97.5
2022-12-19T22:09:38.082Z,97
2022-12-19T22:14:46.211Z,97
2022-12-19T22:19:54.340Z,96.5
2022-12-19T22:25:02.512Z,95.5
2022-12-19T22:30:10.840Z,96.5
2022-12-19T22:35:19.106Z,96.5
2022-12-19T22:40:27.202Z,96.5
2022-12-19T22:45:35.370Z,96.5
2022-12-19T22:50:43.558Z,96
2022-12-19T22:55:51.715Z,95.5
2022-12-19T23:00:59.881Z,95
2022-12-19T23:06:08.058Z,95
2022-12-19T23:11:16.247Z,95
2022-12-19T23:16:24.413Z,94.5
2022-12-19T23:21:32.598Z,93.5
2022-12-19T23:26:40.856Z,94
2022-12-19T23:31:48.934Z,93
2022-12-19T23:36:57.159Z,93
2022-12-19T23:42:05.308Z,93
2022-12-19T23:47:13.448Z,93
2022-12-19T23:52:21.709Z,93
2022-12-19T23:57:29.813Z,93
